^^
B2 Weather Station Historical Data
Daily Summary for November 12, 2018 Units:  English    Metric   Both
Daily Weekly Monthly Yearly Custom
  High: Low: Average:
Temperature: 37.3 °F 25.6 °F 32 °F
Dew Point: 29.6 °F 21.2 °F 27.4 °F
Humidity: 92% 69% 83%
Wind Speed: 11.5mph 0.0mph 5.5mph
Wind Gust: 8.0mph - -
Wind- - NW
Pressure: 30.37 in 30.29 in -
Precipitation: 0.07 in    
Historical Graphs
 
 
Tabular Data for November 12, 2018
Time Temperature Dew Point Pressure Wind Wind Speed Wind Gust Humidity Rainfall Rate (Hourly) solar
00:04 31.2 °F 27.8 °F 30.32 in Calm     87% 0.00 in 0.00 W/m2
00:09 31.3 °F 27.9 °F 30.32 in Calm     87% 0.00 in 0.00 W/m2
00:14 31.4 °F 28.0 °F 30.31 in Calm     87% 0.00 in 0.00 W/m2
00:19 31.5 °F 27.8 °F 30.32 in Calm     86% 0.00 in 0.00 W/m2
00:24 31.5 °F 27.8 °F 30.32 in Calm     86% 0.00 in 0.00 W/m2
00:29 31.5 °F 27.8 °F 30.32 in Calm     86% 0.00 in 0.00 W/m2
00:34 31.6 °F 27.9 °F 30.32 in Calm     86% 0.00 in 0.00 W/m2
00:39 31.7 °F 28.0 °F 30.32 in Calm     86% 0.00 in 0.00 W/m2
00:44 31.8 °F 28.1 °F 30.32 in Calm     86% 0.00 in 0.00 W/m2
00:49 31.9 °F 28.2 °F 30.32 in Calm     86% 0.00 in 0.00 W/m2
00:54 32.0 °F 28.3 °F 30.32 in Calm     86% 0.00 in 0.00 W/m2
00:59 32.1 °F 28.4 °F 30.32 in Calm     86% 0.00 in 0.00 W/m2
01:04 32.1 °F 28.4 °F 30.32 in Calm     86% 0.00 in 0.00 W/m2
01:09 32.2 °F 28.5 °F 30.33 in SSW 3.5 mph 0.1 mph 86% 0.00 in 0.00 W/m2
01:14 32.3 °F 28.3 °F 30.33 in SSW 2.3 mph 0.5 mph 85% 0.00 in 0.00 W/m2
01:19 32.4 °F 28.4 °F 30.32 in SSW 2.0 mph 0.1 mph 85% 0.00 in 0.00 W/m2
01:24 32.6 °F 28.6 °F 30.32 in SW 2.3 mph 0.1 mph 85% 0.00 in 0.00 W/m2
01:29 32.8 °F 28.8 °F 30.33 in West 3.5 mph 2.7 mph 85% 0.00 in 0.00 W/m2
01:34 33.0 °F 28.7 °F 30.32 in West 1.2 mph 0.2 mph 84% 0.00 in 0.00 W/m2
01:39 33.2 °F 28.6 °F 30.32 in West 1.0 mph 0.6 mph 83% 0.00 in 0.00 W/m2
01:44 33.3 °F 28.7 °F 30.33 in West 1.2 mph 0.6 mph 83% 0.00 in 0.00 W/m2
01:49 33.4 °F 28.8 °F 30.33 in West 3.0 mph 0.7 mph 83% 0.00 in 0.00 W/m2
01:54 33.6 °F 28.7 °F 30.32 in WNW 2.3 mph 1.7 mph 82% 0.00 in 0.00 W/m2
01:59 33.7 °F 28.5 °F 30.33 in West 2.3 mph 1.7 mph 81% 0.00 in 0.00 W/m2
02:04 33.8 °F 28.6 °F 30.33 in WNW 3.5 mph 1.5 mph 81% 0.00 in 0.00 W/m2
02:09 33.7 °F 28.5 °F 30.32 in WNW 1.2 mph   81% 0.00 in 0.00 W/m2
02:14 33.7 °F 28.5 °F 30.32 in NW 4.0 mph 1.6 mph 81% 0.00 in 0.00 W/m2
02:19 33.6 °F 28.1 °F 30.32 in WNW 3.5 mph 1.2 mph 80% 0.00 in 0.00 W/m2
02:24 33.5 °F 28.0 °F 30.32 in WNW 4.6 mph 2.3 mph 80% 0.00 in 0.00 W/m2
02:29 33.4 °F 27.9 °F 30.32 in WNW 4.0 mph 2.0 mph 80% 0.00 in 0.00 W/m2
02:34 33.3 °F 28.1 °F 30.31 in NW 3.5 mph 3.1 mph 81% 0.00 in 0.00 W/m2
02:39 33.3 °F 28.1 °F 30.32 in North 5.8 mph 3.8 mph 81% 0.00 in 0.00 W/m2
02:44 33.4 °F 28.2 °F 30.31 in NW 4.6 mph 3.1 mph 81% 0.00 in 0.00 W/m2
02:49 33.5 °F 28.3 °F 30.31 in NW 5.8 mph 2.7 mph 81% 0.00 in 0.00 W/m2
02:54 33.6 °F 28.1 °F 30.31 in WNW 6.9 mph 2.0 mph 80% 0.00 in 0.00 W/m2
02:59 33.5 °F 28.0 °F 30.31 in NW 4.6 mph 2.0 mph 80% 0.00 in 0.00 W/m2
03:04 33.6 °F 28.1 °F 30.31 in NW 1.0 mph 0.5 mph 80% 0.00 in 0.00 W/m2
03:09 33.5 °F 28.0 °F 30.31 in Calm     80% 0.00 in 0.00 W/m2
03:14 33.4 °F 27.9 °F 30.31 in NE 2.3 mph 1.5 mph 80% 0.00 in 0.00 W/m2
03:19 33.0 °F 27.8 °F 30.31 in Calm     81% 0.00 in 0.00 W/m2
03:24 32.9 °F 28.0 °F 30.31 in NE 2.3 mph 0.5 mph 82% 0.00 in 0.00 W/m2
03:29 32.7 °F 27.8 °F 30.31 in NNE 2.3 mph 0.7 mph 82% 0.00 in 0.00 W/m2
03:34 32.5 °F 27.6 °F 30.31 in NNE 1.2 mph 0.2 mph 82% 0.00 in 0.00 W/m2
03:39 32.4 °F 27.5 °F 30.31 in Calm     82% 0.00 in 0.00 W/m2
03:44 32.4 °F 27.5 °F 30.31 in Calm     82% 0.00 in 0.00 W/m2
03:49 32.5 °F 27.6 °F 30.31 in Calm     82% 0.00 in 0.00 W/m2
03:54 32.4 °F 27.5 °F 30.31 in Calm     82% 0.00 in 0.00 W/m2
03:59 32.4 °F 27.5 °F 30.31 in Calm     82% 0.00 in 0.00 W/m2
04:04 32.4 °F 27.5 °F 30.31 in Calm     82% 0.00 in 0.00 W/m2
04:09 32.5 °F 27.6 °F 30.31 in Calm     82% 0.00 in 0.00 W/m2
04:14 32.5 °F 27.6 °F 30.31 in Calm     82% 0.00 in 0.00 W/m2
04:19 32.6 °F 28.0 °F 30.31 in Calm     83% 0.00 in 0.00 W/m2
04:24 32.4 °F 27.8 °F 30.31 in Calm     83% 0.00 in 0.00 W/m2
04:29 32.4 °F 27.8 °F 30.31 in Calm     83% 0.00 in 0.00 W/m2
04:34 32.2 °F 27.6 °F 30.31 in Calm     83% 0.00 in 0.00 W/m2
04:39 32.0 °F 27.4 °F 30.31 in Calm     83% 0.00 in 0.00 W/m2
04:44 31.8 °F 27.2 °F 30.30 in Calm     83% 0.00 in 0.00 W/m2
04:49 31.8 °F 27.2 °F 30.30 in Calm     83% 0.00 in 0.00 W/m2
04:54 31.6 °F 27.0 °F 30.30 in Calm     83% 0.00 in 0.00 W/m2
04:59 31.4 °F 26.8 °F 30.30 in Calm     83% 0.00 in 0.00 W/m2
05:04 31.0 °F 26.7 °F 30.29 in NNE 2.3 mph 0.1 mph 84% 0.00 in 0.00 W/m2
05:09 30.5 °F 26.2 °F 30.30 in NNE 2.3 mph 1.7 mph 84% 0.00 in 0.00 W/m2
05:14 30.2 °F 26.2 °F 30.29 in NNE 2.3 mph 1.4 mph 85% 0.00 in 0.00 W/m2
05:19 29.9 °F 26.2 °F 30.29 in NNE 2.3 mph 1.5 mph 86% 0.00 in 0.00 W/m2
05:24 29.8 °F 26.4 °F 30.29 in North 3.5 mph 2.7 mph 87% 0.00 in 0.00 W/m2
05:29 29.7 °F 26.3 °F 30.30 in North 3.5 mph 1.8 mph 87% 0.00 in 0.00 W/m2
05:34 29.8 °F 26.4 °F 30.30 in NNW 2.3 mph 1.7 mph 87% 0.00 in 0.00 W/m2
05:39 29.9 °F 26.5 °F 30.30 in NNW 3.5 mph 1.5 mph 87% 0.00 in 0.00 W/m2
05:44 30.1 °F 27.0 °F 30.31 in NNW 3.5 mph 2.0 mph 88% 0.00 in 0.00 W/m2
05:49 30.3 °F 26.9 °F 30.31 in NNW 3.0 mph 1.0 mph 87% 0.00 in 0.00 W/m2
05:54 30.5 °F 27.1 °F 30.32 in NNW 1.2 mph 0.3 mph 87% 0.00 in 0.00 W/m2
05:59 30.6 °F 27.2 °F 30.32 in NNW 2.0 mph 1.0 mph 87% 0.00 in 0.00 W/m2
06:04 30.8 °F 27.4 °F 30.32 in NNW 3.5 mph 0.7 mph 87% 0.00 in 0.00 W/m2
06:09 31.0 °F 27.6 °F 30.32 in NNW 2.3 mph 0.9 mph 87% 0.00 in 0.00 W/m2
06:14 31.2 °F 27.8 °F 30.33 in NW 3.5 mph 1.6 mph 87% 0.00 in 0.00 W/m2
06:19 31.4 °F 27.7 °F 30.33 in NW 3.5 mph 1.6 mph 86% 0.00 in 0.00 W/m2
06:24 31.5 °F 27.8 °F 30.33 in NW 3.5 mph 1.0 mph 86% 0.00 in 0.00 W/m2
06:29 31.6 °F 27.9 °F 30.33 in North 4.0 mph 2.8 mph 86% 0.00 in 0.00 W/m2
06:34 31.7 °F 28.0 °F 30.33 in NW 3.5 mph 1.1 mph 86% 0.00 in 0.00 W/m2
06:39 31.7 °F 28.0 °F 30.32 in NNW 4.6 mph 3.1 mph 86% 0.00 in 0.00 W/m2
06:44 31.7 °F 28.0 °F 30.32 in NNW 5.0 mph 3.4 mph 86% 0.00 in 0.00 W/m2
06:49 31.6 °F 27.9 °F 30.32 in NW 3.5 mph 2.9 mph 86% 0.00 in 9.00 W/m2
06:54 31.5 °F 27.8 °F 30.32 in NW 5.8 mph 3.6 mph 86% 0.00 in 11.00 W/m2
06:59 31.4 °F 27.7 °F 30.32 in NNW 4.6 mph 3.5 mph 86% 0.00 in 18.00 W/m2
07:04 31.3 °F 27.6 °F 30.32 in NW 5.8 mph 2.5 mph 86% 0.00 in 23.00 W/m2
07:09 31.2 °F 27.5 °F 30.33 in NNW 5.8 mph 4.4 mph 86% 0.00 in 25.00 W/m2
07:14 31.3 °F 27.9 °F 30.33 in NNW 3.5 mph 3.2 mph 87% 0.00 in 28.00 W/m2
07:19 31.4 °F 27.7 °F 30.33 in NNW 4.6 mph 3.3 mph 86% 0.00 in 33.00 W/m2
07:24 31.5 °F 27.8 °F 30.32 in North 6.0 mph 4.4 mph 86% 0.00 in 35.00 W/m2
07:29 31.6 °F 27.9 °F 30.33 in NNW 6.9 mph 5.2 mph 86% 0.00 in 40.00 W/m2
07:34 31.7 °F 27.7 °F 30.33 in North 6.9 mph 5.5 mph 85% 0.00 in 49.00 W/m2
07:39 31.7 °F 27.7 °F 30.33 in NNW 6.9 mph 4.5 mph 85% 0.00 in 58.00 W/m2
07:44 31.8 °F 27.8 °F 30.33 in NNW 5.8 mph 4.9 mph 85% 0.00 in 63.00 W/m2
07:49 31.9 °F 27.9 °F 30.33 in NNW 6.9 mph 5.0 mph 85% 0.00 in 70.00 W/m2
07:54 31.9 °F 27.9 °F 30.33 in NNW 6.9 mph 4.8 mph 85% 0.00 in 77.00 W/m2
07:59 32.0 °F 28.0 °F 30.33 in NNW 6.9 mph 4.8 mph 85% 0.00 in 90.00 W/m2
08:04 32.1 °F 28.4 °F 30.33 in NNW 6.9 mph 4.3 mph 86% 0.00 in 88.00 W/m2
08:09 32.3 °F 28.6 °F 30.33 in North 4.0 mph 3.0 mph 86% 0.00 in 88.00 W/m2
08:14 32.4 °F 28.7 °F 30.34 in NNW 6.0 mph 4.5 mph 86% 0.00 in 97.00 W/m2
08:19 32.5 °F 28.8 °F 30.34 in North 3.5 mph 2.7 mph 86% 0.00 in 102.00 W/m2
08:24 32.7 °F 29.0 °F 30.34 in NNW 5.8 mph 4.7 mph 86% 0.00 in 95.00 W/m2
08:29 32.9 °F 28.9 °F 30.34 in North 4.6 mph 4.4 mph 85% 0.00 in 90.00 W/m2
08:34 33.0 °F 29.0 °F 30.34 in North 5.8 mph 3.9 mph 85% 0.00 in 81.00 W/m2
08:39 33.1 °F 29.1 °F 30.34 in North 5.0 mph 4.0 mph 85% 0.00 in 88.00 W/m2
08:44 33.3 °F 29.0 °F 30.34 in North 5.8 mph 5.1 mph 84% 0.00 in 104.00 W/m2
08:49 33.4 °F 29.1 °F 30.34 in North 6.9 mph 4.3 mph 84% 0.00 in 93.00 W/m2
08:54 33.6 °F 29.3 °F 30.34 in North 6.0 mph 5.1 mph 84% 0.00 in 105.00 W/m2
08:59 33.7 °F 29.1 °F 30.33 in NNW 11.5 mph 5.6 mph 83% 0.00 in 102.00 W/m2
09:04 33.8 °F 28.9 °F 30.34 in NW 8.1 mph 5.3 mph 82% 0.00 in 95.00 W/m2
09:09 33.8 °F 28.9 °F 30.34 in North 6.9 mph 4.9 mph 82% 0.00 in 97.00 W/m2
09:14 33.8 °F 28.9 °F 30.34 in North 8.1 mph 6.3 mph 82% 0.00 in 109.00 W/m2
09:19 34.0 °F 29.1 °F 30.33 in North 8.1 mph 4.9 mph 82% 0.00 in 125.00 W/m2
09:24 34.2 °F 29.0 °F 30.34 in North 8.1 mph 6.1 mph 81% 0.00 in 121.00 W/m2
09:29 34.2 °F 28.7 °F 30.34 in NNW 8.1 mph 4.9 mph 80% 0.00 in 118.00 W/m2
09:34 34.3 °F 28.8 °F 30.34 in North 6.9 mph 4.6 mph 80% 0.00 in 128.00 W/m2
09:39 34.4 °F 28.2 °F 30.36 in NNW 5.8 mph 5.2 mph 78% 0.00 in 100.00 W/m2
09:44 34.4 °F 28.2 °F 30.36 in North 5.8 mph 4.1 mph 78% 0.00 in 95.00 W/m2
09:49 34.4 °F 28.2 °F 30.36 in North 4.6 mph 4.3 mph 78% 0.00 in 102.00 W/m2
09:54 34.5 °F 28.3 °F 30.36 in North 5.8 mph 3.8 mph 78% 0.00 in 127.00 W/m2
09:59 34.7 °F 28.2 °F 30.36 in NNW 6.0 mph 5.5 mph 77% 0.00 in 141.00 W/m2
10:04 34.8 °F 28.3 °F 30.36 in North 8.1 mph 4.9 mph 77% 0.00 in 142.00 W/m2
10:09 35.0 °F 28.5 °F 30.36 in North 5.8 mph 4.8 mph 77% 0.00 in 132.00 W/m2
10:14 35.0 °F 28.2 °F 30.36 in North 5.0 mph 2.7 mph 76% 0.00 in 144.00 W/m2
10:19 35.1 °F 28.3 °F 30.36 in North 8.1 mph 5.2 mph 76% 0.00 in 132.00 W/m2
10:24 35.0 °F 27.9 °F 30.36 in NNW 8.1 mph 5.6 mph 75% 0.00 in 134.00 W/m2
10:29 35.1 °F 28.3 °F 30.36 in NNW 6.9 mph 5.3 mph 76% 0.00 in 139.00 W/m2
10:34 35.2 °F 28.4 °F 30.36 in NNW 7.0 mph 5.6 mph 76% 0.00 in 158.00 W/m2
10:39 35.3 °F 28.2 °F 30.36 in NNW 8.1 mph 5.1 mph 75% 0.00 in 171.00 W/m2
10:44 35.5 °F 29.0 °F 30.35 in North 4.6 mph 4.4 mph 77% 0.00 in 179.00 W/m2
10:49 35.7 °F 29.2 °F 30.35 in North 7.0 mph 5.9 mph 77% 0.00 in 225.00 W/m2
10:54 36.1 °F 29.6 °F 30.35 in NNW 6.9 mph 5.7 mph 77% 0.00 in 221.00 W/m2
10:59 36.1 °F 28.6 °F 30.35 in NNW 9.2 mph 5.4 mph 74% 0.00 in 195.00 W/m2
11:04 36.1 °F 29.3 °F 30.35 in NNW 10.4 mph 6.5 mph 76% 0.00 in 213.00 W/m2
11:09 36.3 °F 29.1 °F 30.36 in NNW 6.9 mph 5.4 mph 75% 0.00 in 165.00 W/m2
11:14 36.2 °F 28.7 °F 30.35 in NW 6.9 mph 4.2 mph 74% 0.00 in 151.00 W/m2
11:19 36.2 °F 29.0 °F 30.35 in NW 6.9 mph 4.7 mph 75% 0.00 in 156.00 W/m2
11:24 36.3 °F 28.8 °F 30.35 in NNW 7.0 mph 5.8 mph 74% 0.00 in 158.00 W/m2
11:29 36.2 °F 28.4 °F 30.35 in NNW 8.1 mph 4.4 mph 73% 0.00 in 162.00 W/m2
11:34 36.4 °F 28.6 °F 30.35 in NNW 8.0 mph 5.5 mph 73% 0.00 in 169.00 W/m2
11:39 36.4 °F 28.2 °F 30.35 in NNW 9.2 mph 7.5 mph 72% 0.00 in 167.00 W/m2
11:44 36.3 °F 28.1 °F 30.35 in North 10.4 mph 7.1 mph 72% 0.00 in 160.00 W/m2
11:49 36.3 °F 28.1 °F 30.36 in North 8.1 mph 5.6 mph 72% 0.00 in 149.00 W/m2
11:54 36.3 °F 28.1 °F 30.35 in NNW 6.9 mph 5.3 mph 72% 0.00 in 202.00 W/m2
11:59 36.6 °F 28.8 °F 30.34 in North 7.0 mph 5.4 mph 73% 0.00 in 213.00 W/m2
12:04 37.0 °F 29.1 °F 30.35 in NNW 6.9 mph 4.2 mph 73% 0.00 in 185.00 W/m2
12:09 37.1 °F 29.2 °F 30.34 in WNW 6.9 mph 4.4 mph 73% 0.00 in 186.00 W/m2
12:14 36.9 °F 28.0 °F 30.34 in NNW 8.1 mph 3.6 mph 70% 0.00 in 172.00 W/m2
12:19 37.0 °F 29.1 °F 30.34 in NNW 5.8 mph 4.5 mph 73% 0.00 in 279.00 W/m2
12:24 37.2 °F 28.7 °F 30.33 in NNW 10.4 mph 8.0 mph 71% 0.00 in 230.00 W/m2
12:29 37.0 °F 28.1 °F 30.34 in North 8.1 mph 6.7 mph 70% 0.00 in 193.00 W/m2
12:34 37.0 °F 28.1 °F 30.34 in NNW 4.6 mph 3.7 mph 70% 0.00 in 185.00 W/m2
12:39 37.2 °F 28.3 °F 30.34 in North 8.1 mph 4.1 mph 70% 0.00 in 204.00 W/m2
12:44 37.2 °F 28.0 °F 30.33 in NW 6.0 mph 2.9 mph 69% 0.00 in 192.00 W/m2
12:49 37.3 °F 28.1 °F 30.33 in NNW 6.9 mph 4.8 mph 69% 0.00 in 146.00 W/m2
12:54 37.2 °F 28.3 °F 30.33 in NNW 8.0 mph 5.2 mph 70% 0.00 in 153.00 W/m2
12:59 37.1 °F 28.2 °F 30.32 in NNW 10.0 mph 6.5 mph 70% 0.00 in 178.00 W/m2
13:04 37.2 °F 28.3 °F 30.32 in NNW 6.9 mph 4.6 mph 70% 0.00 in 144.00 W/m2
13:09 37.1 °F 27.9 °F 30.33 in NNW 5.8 mph 4.8 mph 69% 0.00 in 93.00 W/m2
13:13 37.0 °F 27.8 °F 30.34 in North 3.5 mph 2.6 mph 69% 0.00 in 77.00 W/m2
13:19 36.9 °F 27.7 °F 30.34 in NNW 4.0 mph 2.9 mph 69% 0.00 in 95.00 W/m2
13:24 37.0 °F 28.5 °F 30.33 in North 5.8 mph 4.3 mph 71% 0.00 in 109.00 W/m2
13:29 36.9 °F 27.7 °F 30.33 in NNW 6.9 mph 3.2 mph 69% 0.00 in 86.00 W/m2
13:34 36.9 °F 27.7 °F 30.34 in NNW 6.0 mph 3.9 mph 69% 0.00 in 93.00 W/m2
13:39 36.9 °F 27.7 °F 30.34 in North 5.8 mph 4.3 mph 69% 0.00 in 111.00 W/m2
13:44 36.9 °F 28.0 °F 30.33 in North 5.0 mph 4.4 mph 70% 0.00 in 114.00 W/m2
13:49 37.0 °F 28.1 °F 30.33 in North 5.8 mph 4.2 mph 70% 0.00 in 91.00 W/m2
13:54 36.9 °F 27.7 °F 30.33 in NNW 6.9 mph 4.4 mph 69% 0.00 in 121.00 W/m2
13:59 36.8 °F 27.6 °F 30.33 in NNW 6.9 mph 5.8 mph 69% 0.00 in 118.00 W/m2
14:04 36.8 °F 27.9 °F 30.32 in NNW 6.9 mph 4.9 mph 70% 0.00 in 97.00 W/m2
14:09 36.8 °F 27.9 °F 30.33 in North 6.9 mph 5.4 mph 70% 0.00 in 135.00 W/m2
14:14 36.8 °F 28.3 °F 30.32 in NNW 8.1 mph 4.2 mph 71% 0.00 in 116.00 W/m2
14:19 36.7 °F 27.5 °F 30.33 in North 6.0 mph 5.9 mph 69% 0.00 in 123.00 W/m2
14:24 36.5 °F 27.6 °F 30.32 in NW 8.1 mph 5.0 mph 70% 0.00 in 123.00 W/m2
14:29 36.3 °F 27.8 °F 30.32 in NNW 7.0 mph 5.9 mph 71% 0.00 in 123.00 W/m2
14:34 36.2 °F 27.7 °F 30.33 in NNW 9.2 mph 4.8 mph 71% 0.00 in 107.00 W/m2
14:39 36.2 °F 27.7 °F 30.33 in North 6.0 mph 4.4 mph 71% 0.00 in 72.00 W/m2
14:44 35.9 °F 27.4 °F 30.33 in NNW 8.1 mph 6.4 mph 71% 0.00 in 47.00 W/m2
14:49 35.7 °F 27.6 °F 30.33 in NNW 7.0 mph 5.9 mph 72% 0.00 in 47.00 W/m2
14:54 35.5 °F 27.4 °F 30.33 in NNW 9.0 mph 6.1 mph 72% 0.00 in 49.00 W/m2
14:59 35.3 °F 27.5 °F 30.33 in NNW 7.0 mph 4.7 mph 73% 0.00 in 51.00 W/m2
15:04 35.1 °F 28.0 °F 30.33 in NNW 9.0 mph 6.5 mph 75% 0.00 in 40.00 W/m2
15:09 34.8 °F 28.0 °F 30.33 in NNW 8.1 mph 3.6 mph 76% 0.00 in 39.00 W/m2
15:14 34.5 °F 28.0 °F 30.33 in NNW 9.2 mph 4.6 mph 77% 0.00 in 39.00 W/m2
15:19 34.2 °F 28.1 °F 30.32 in NNW 9.2 mph 5.1 mph 78% 0.00 in 33.00 W/m2
15:24 34.0 °F 28.2 °F 30.32 in NNW 8.1 mph 5.4 mph 79% 0.00 in 32.00 W/m2
15:29 33.9 °F 28.1 °F 30.32 in NNW 6.9 mph 5.0 mph 79% 0.00 in 35.00 W/m2
15:34 33.9 °F 28.1 °F 30.32 in North 6.9 mph 4.6 mph 79% 0.00 in 28.00 W/m2
15:39 33.7 °F 28.2 °F 30.32 in NNW 5.8 mph 3.2 mph 80% 0.00 in 35.00 W/m2
15:44 33.8 °F 28.3 °F 30.32 in NNW 3.5 mph 2.2 mph 80% 0.00 in 26.00 W/m2
15:49 33.8 °F 28.3 °F 30.32 in NNW 5.8 mph 3.8 mph 80% 0.00 in 19.00 W/m2
15:54 33.8 °F 28.3 °F 30.32 in North 5.8 mph 5.1 mph 80% 0.00 in 16.00 W/m2
15:59 33.5 °F 28.0 °F 30.32 in NW 8.1 mph 6.1 mph 80% 0.00 in 12.00 W/m2
16:04 33.3 °F 28.1 °F 30.32 in North 5.8 mph 4.5 mph 81% 0.00 in 11.00 W/m2
16:09 33.0 °F 28.4 °F 30.32 in NNW 8.1 mph 6.4 mph 83% 0.00 in 9.00 W/m2
16:14 32.6 °F 28.3 °F 30.33 in North 6.9 mph 4.1 mph 84% 0.00 in 5.00 W/m2
16:19 32.4 °F 28.4 °F 30.33 in NNW 6.9 mph 6.2 mph 85% 0.00 in 0.00 W/m2
16:24 32.2 °F 28.5 °F 30.33 in NNW 5.8 mph 3.4 mph 86% 0.00 in 0.00 W/m2
16:29 32.1 °F 28.4 °F 30.33 in North 6.0 mph 4.5 mph 86% 0.00 in 0.00 W/m2
16:34 31.9 °F 28.5 °F 30.33 in NW 5.8 mph 2.5 mph 87% 0.00 in 0.00 W/m2
16:39 31.8 °F 28.7 °F 30.33 in NW 6.9 mph 3.8 mph 88% 0.00 in 0.00 W/m2
16:44 31.7 °F 28.6 °F 30.33 in WNW 5.8 mph 3.0 mph 88% 0.00 in 0.00 W/m2
16:49 31.5 °F 28.6 °F 30.32 in North 7.0 mph 5.0 mph 89% 0.00 in 0.00 W/m2
16:54 31.4 °F 28.5 °F 30.32 in North 5.8 mph 4.6 mph 89% 0.00 in 0.00 W/m2
16:59 31.2 °F 28.6 °F 30.32 in NNW 3.5 mph 2.9 mph 90% 0.00 in 0.00 W/m2
17:04 31.1 °F 28.5 °F 30.33 in NNW 5.8 mph 3.4 mph 90% 0.00 in 0.00 W/m2
17:09 31.0 °F 28.4 °F 30.33 in North 6.9 mph 4.8 mph 90% 0.00 in 0.00 W/m2
17:14 30.8 °F 28.5 °F 30.33 in NNW 6.9 mph 4.5 mph 91% 0.00 in 0.00 W/m2
17:19 30.7 °F 28.4 °F 30.33 in NW 7.0 mph 5.9 mph 91% 0.00 in 0.00 W/m2
17:24 30.6 °F 28.3 °F 30.33 in NNW 4.6 mph 4.0 mph 91% 0.00 in 0.00 W/m2
17:29 30.3 °F 28.0 °F 30.33 in NNW 6.9 mph 5.2 mph 91% 0.00 in 0.00 W/m2
17:34 30.2 °F 27.9 °F 30.33 in NNW 4.6 mph 5.2 mph 91% 0.00 in 0.00 W/m2
17:39 30.0 °F 27.7 °F 30.33 in NNW 8.1 mph 5.1 mph 91% 0.00 in 0.00 W/m2
17:44 29.9 °F 27.9 °F 30.34 in NNW 6.9 mph 3.4 mph 92% 0.00 in 0.00 W/m2
17:49 29.8 °F 27.5 °F 30.34 in NW 6.9 mph 3.0 mph 91% 0.00 in 0.00 W/m2
17:54 29.7 °F 27.7 °F 30.35 in NW 9.2 mph 4.7 mph 92% 0.00 in 0.00 W/m2
17:59 29.7 °F 27.7 °F 30.34 in NNW 8.1 mph 6.0 mph 92% 0.00 in 0.00 W/m2
18:04 29.6 °F 27.6 °F 30.34 in NNW 10.4 mph 4.7 mph 92% 0.00 in 0.00 W/m2
18:09 29.5 °F 27.5 °F 30.35 in NNW 6.0 mph 4.8 mph 92% 0.00 in 0.00 W/m2
18:14 29.4 °F 27.4 °F 30.35 in NNW 9.0 mph 4.8 mph 92% 0.00 in 0.00 W/m2
18:19 29.4 °F 27.4 °F 30.35 in NNW 9.2 mph 5.9 mph 92% 0.00 in 0.00 W/m2
18:24 29.4 °F 27.4 °F 30.35 in NNW 6.9 mph 4.2 mph 92% 0.00 in 0.00 W/m2
18:29 29.3 °F 27.3 °F 30.34 in North 6.9 mph 4.7 mph 92% 0.00 in 0.00 W/m2
18:34 29.3 °F 27.3 °F 30.35 in NNW 8.1 mph 6.7 mph 92% 0.00 in 0.00 W/m2
18:39 29.2 °F 27.2 °F 30.35 in NNW 8.1 mph 4.9 mph 92% 0.00 in 0.00 W/m2
18:44 29.2 °F 27.2 °F 30.35 in NNW 5.8 mph 2.7 mph 92% 0.00 in 0.00 W/m2
18:49 29.2 °F 27.2 °F 30.35 in NW 6.9 mph 4.4 mph 92% 0.00 in 0.00 W/m2
18:54 29.2 °F 27.2 °F 30.35 in NW 6.9 mph 4.5 mph 92% 0.00 in 0.00 W/m2
18:59 29.1 °F 27.1 °F 30.34 in NW 5.8 mph 2.7 mph 92% 0.00 in 0.00 W/m2
19:04 29.1 °F 27.1 °F 30.34 in NW 5.8 mph 2.2 mph 92% 0.00 in 0.00 W/m2
19:09 29.1 °F 27.1 °F 30.34 in NNW 4.6 mph 2.9 mph 92% 0.00 in 0.00 W/m2
19:14 29.0 °F 27.0 °F 30.34 in NW 8.1 mph 3.5 mph 92% 0.00 in 0.00 W/m2
19:19 28.8 °F 26.8 °F 30.35 in NW 6.9 mph 5.4 mph 92% 0.00 in 0.00 W/m2
19:24 28.8 °F 26.8 °F 30.35 in NW 9.2 mph 4.6 mph 92% 0.00 in 0.00 W/m2
19:29 28.8 °F 26.8 °F 30.35 in NW 6.9 mph 2.2 mph 92% 0.00 in 0.00 W/m2
19:34 28.6 °F 26.6 °F 30.35 in NW 6.9 mph 4.1 mph 92% 0.00 in 0.00 W/m2
19:39 28.6 °F 26.6 °F 30.35 in NW 3.5 mph 2.1 mph 92% 0.00 in 0.00 W/m2
19:44 28.5 °F 26.5 °F 30.35 in NNW 9.2 mph 5.2 mph 92% 0.00 in 0.00 W/m2
19:49 28.4 °F 26.4 °F 30.35 in NW 6.9 mph 4.6 mph 92% 0.00 in 0.00 W/m2
19:54 28.3 °F 26.3 °F 30.35 in NNW 5.0 mph 4.4 mph 92% 0.00 in 0.00 W/m2
19:59 28.3 °F 26.3 °F 30.35 in NNW 5.0 mph 4.7 mph 92% 0.00 in 0.00 W/m2
20:04 28.3 °F 26.3 °F 30.34 in NW 6.9 mph 5.1 mph 92% 0.00 in 0.00 W/m2
20:09 28.3 °F 26.3 °F 30.34 in NW 6.0 mph 4.4 mph 92% 0.00 in 0.00 W/m2
20:14 28.3 °F 26.3 °F 30.34 in NNW 9.2 mph 4.3 mph 92% 0.00 in 0.00 W/m2
20:19 28.1 °F 26.1 °F 30.34 in NNW 7.0 mph 3.4 mph 92% 0.00 in 0.00 W/m2
20:24 28.1 °F 26.1 °F 30.35 in NNW 6.0 mph 4.4 mph 92% 0.00 in 0.00 W/m2
20:29 28.0 °F 26.0 °F 30.34 in NW 6.9 mph 4.4 mph 92% 0.00 in 0.00 W/m2
20:34 28.0 °F 26.0 °F 30.35 in NW 8.1 mph 4.2 mph 92% 0.00 in 0.00 W/m2
20:39 28.0 °F 26.0 °F 30.35 in NNW 7.0 mph 5.4 mph 92% 0.00 in 0.00 W/m2
20:44 27.9 °F 25.9 °F 30.35 in NNW 5.8 mph 4.8 mph 92% 0.00 in 0.00 W/m2
20:49 27.9 °F 25.6 °F 30.36 in NW 5.0 mph 3.7 mph 91% 0.00 in 0.00 W/m2
20:54 27.8 °F 25.5 °F 30.35 in NW 5.8 mph 4.4 mph 91% 0.00 in 0.00 W/m2
20:59 27.7 °F 25.4 °F 30.36 in NNW 5.8 mph 3.4 mph 91% 0.00 in 0.00 W/m2
21:04 27.7 °F 25.4 °F 30.36 in North 9.2 mph 2.5 mph 91% 0.00 in 0.00 W/m2
21:09 27.6 °F 25.3 °F 30.36 in NW 4.6 mph 3.7 mph 91% 0.00 in 0.00 W/m2
21:14 27.6 °F 25.3 °F 30.37 in NW 4.6 mph 3.6 mph 91% 0.00 in 0.00 W/m2
21:19 27.6 °F 25.3 °F 30.37 in NW 6.9 mph 3.7 mph 91% 0.01 in 0.00 W/m2
21:24 27.5 °F 25.2 °F 30.37 in NW 9.2 mph 3.5 mph 91% 0.02 in 0.00 W/m2
21:29 27.5 °F 25.0 °F 30.37 in NNW 6.9 mph 4.9 mph 90% 0.02 in 0.00 W/m2
21:34 27.4 °F 24.9 °F 30.37 in NNW 6.0 mph 4.6 mph 90% 0.03 in 0.00 W/m2
21:39 27.4 °F 24.9 °F 30.37 in WNW 8.1 mph 5.6 mph 90% 0.04 in 0.00 W/m2
21:44 27.4 °F 24.6 °F 30.37 in North 8.1 mph 3.8 mph 89% 0.04 in 0.00 W/m2
21:49 27.3 °F 24.5 °F 30.37 in North 6.9 mph 4.8 mph 89% 0.04 in 0.00 W/m2
21:54 27.3 °F 24.5 °F 30.37 in NW 9.2 mph 4.4 mph 89% 0.05 in 0.00 W/m2
21:59 27.2 °F 24.1 °F 30.37 in NW 9.2 mph 5.3 mph 88% 0.05 in 0.00 W/m2
22:04 27.2 °F 24.1 °F 30.37 in WNW 8.1 mph 4.9 mph 88% 0.06 in 0.00 W/m2
22:09 27.1 °F 24.0 °F 30.37 in North 9.2 mph 3.7 mph 88% 0.06 in 0.00 W/m2
22:14 27.1 °F 24.0 °F 30.37 in NNW 8.1 mph 3.7 mph 88% 0.06 in 0.00 W/m2
22:19 27.0 °F 24.2 °F 30.37 in NW 6.9 mph 4.4 mph 89% 0.05 in 0.00 W/m2
22:25 27.0 °F 23.9 °F 30.36 in North 6.9 mph 4.4 mph 88% 0.04 in 0.00 W/m2
22:29 26.9 °F 23.8 °F 30.36 in NNW 5.8 mph 4.0 mph 88% 0.04 in 0.00 W/m2
22:34 26.9 °F 23.8 °F 30.37 in North 11.5 mph 7.0 mph 88% 0.04 in 0.00 W/m2
22:39 26.7 °F 23.6 °F 30.36 in NW 10.4 mph 6.5 mph 88% 0.03 in 0.00 W/m2
22:44 26.6 °F 23.5 °F 30.36 in NNW 8.1 mph 6.0 mph 88% 0.03 in 0.00 W/m2
22:49 26.6 °F 23.5 °F 30.36 in WNW 8.1 mph 5.0 mph 88% 0.03 in 0.00 W/m2
22:54 26.5 °F 23.4 °F 30.37 in North 9.2 mph 4.6 mph 88% 0.02 in 0.00 W/m2
22:59 26.5 °F 23.4 °F 30.37 in NNW 6.9 mph 4.7 mph 88% 0.02 in 0.00 W/m2
23:04 26.5 °F 23.4 °F 30.37 in NNW 7.0 mph 5.0 mph 88% 0.01 in 0.00 W/m2
23:09 26.4 °F 23.3 °F 30.37 in NNW 5.8 mph 4.0 mph 88% 0.01 in 0.00 W/m2
23:14 26.3 °F 23.2 °F 30.37 in NNW 5.8 mph 3.3 mph 88% 0.01 in 0.00 W/m2
23:19 26.4 °F 23.3 °F 30.37 in North 6.0 mph 5.0 mph 88% 0.01 in 0.00 W/m2
23:24 26.3 °F 23.0 °F 30.36 in NNE 6.9 mph 2.9 mph 87% 0.01 in 0.00 W/m2
23:29 26.2 °F 22.6 °F 30.36 in North 4.6 mph 3.8 mph 86% 0.01 in 0.00 W/m2
23:34 26.1 °F 22.2 °F 30.36 in NW 3.5 mph 3.4 mph 85% 0.00 in 0.00 W/m2
23:39 26.0 °F 22.1 °F 30.36 in NW 9.2 mph 4.9 mph 85% 0.00 in 0.00 W/m2
23:44 25.9 °F 21.7 °F 30.36 in North 6.9 mph 5.3 mph 84% 0.00 in 0.00 W/m2
23:49 25.9 °F 21.7 °F 30.36 in NNW 8.1 mph 6.0 mph 84% 0.00 in 0.00 W/m2
23:54 25.8 °F 21.3 °F 30.36 in North 8.1 mph 5.7 mph 83% 0.00 in 0.00 W/m2
23:59 25.6 °F 21.2 °F 30.36 in NW 8.1 mph 5.6 mph 83% 0.00 in 0.00 W/m2
Bourbonnais, Illinois, USA
Compliments of Weather Underground - 4 mb